sensor_id;sensor_type;location;lat;lon;timestamp;noise_LAeq;noise_LA_min;noise_LA_max;noise_LA01;noise_LA95
18377;Laerm;9315;52.624;13.544;2023-06-14T00:01:37;55.38;34.84;72.44;;
18377;Laerm;9315;52.624;13.544;2023-06-14T00:04:05;52.41;34.11;70.39;;
18377;Laerm;9315;52.624;13.544;2023-06-14T00:06:33;55.32;36.02;73.79;;
18377;Laerm;9315;52.624;13.544;2023-06-14T00:09:00;38.69;34.31;47.30;;
18377;Laerm;9315;52.624;13.544;2023-06-14T00:11:28;39.91;34.88;46.79;;
18377;Laerm;9315;52.624;13.544;2023-06-14T00:13:57;40.97;35.65;54.04;;
18377;Laerm;9315;52.624;13.544;2023-06-14T00:16:26;42.36;35.71;61.79;;
18377;Laerm;9315;52.624;13.544;2023-06-14T00:18:54;40.39;34.47;47.67;;
18377;Laerm;9315;52.624;13.544;2023-06-14T00:21:21;40.35;35.40;46.43;;
18377;Laerm;9315;52.624;13.544;2023-06-14T00:23:48;54.06;35.64;68.45;;
18377;Laerm;9315;52.624;13.544;2023-06-14T00:26:16;57.44;36.90;73.22;;
18377;Laerm;9315;52.624;13.544;2023-06-14T00:28:43;41.03;36.28;48.11;;
18377;Laerm;9315;52.624;13.544;2023-06-14T00:31:10;40.64;35.85;50.88;;
18377;Laerm;9315;52.624;13.544;2023-06-14T00:33:37;49.80;36.19;64.99;;
18377;Laerm;9315;52.624;13.544;2023-06-14T00:36:05;59.43;35.75;74.34;;
18377;Laerm;9315;52.624;13.544;2023-06-14T00:38:34;51.84;34.37;69.75;;
18377;Laerm;9315;52.624;13.544;2023-06-14T00:41:01;46.81;35.16;66.53;;
18377;Laerm;9315;52.624;13.544;2023-06-14T00:43:28;43.21;35.63;52.13;;
18377;Laerm;9315;52.624;13.544;2023-06-14T00:45:55;47.51;37.82;59.83;;
18377;Laerm;9315;52.624;13.544;2023-06-14T00:48:23;46.24;36.89;59.13;;
18377;Laerm;9315;52.624;13.544;2023-06-14T00:50:52;51.48;37.49;67.17;;
18377;Laerm;9315;52.624;13.544;2023-06-14T00:53:19;41.62;35.06;51.37;;
18377;Laerm;9315;52.624;13.544;2023-06-14T00:55:52;42.09;36.10;50.45;;
18377;Laerm;9315;52.624;13.544;2023-06-14T00:58:20;56.99;36.98;74.83;;
18377;Laerm;9315;52.624;13.544;2023-06-14T01:00:51;60.90;37.48;78.08;;
18377;Laerm;9315;52.624;13.544;2023-06-14T01:03:18;60.81;37.45;78.31;;
18377;Laerm;9315;52.624;13.544;2023-06-14T01:06:02;54.29;36.52;71.97;;
18377;Laerm;9315;52.624;13.544;2023-06-14T01:09:18;53.38;35.32;70.13;;
18377;Laerm;9315;52.624;13.544;2023-06-14T01:12:18;45.44;37.13;58.17;;
18377;Laerm;9315;52.624;13.544;2023-06-14T01:14:48;45.69;36.12;65.28;;
18377;Laerm;9315;52.624;13.544;2023-06-14T01:17:17;59.52;35.80;81.10;;
18377;Laerm;9315;52.624;13.544;2023-06-14T01:19:45;56.80;36.03;72.64;;
18377;Laerm;9315;52.624;13.544;2023-06-14T01:22:13;54.96;38.18;70.60;;
18377;Laerm;9315;52.624;13.544;2023-06-14T01:24:40;57.60;35.76;73.38;;
18377;Laerm;9315;52.624;13.544;2023-06-14T01:27:12;58.91;35.64;74.57;;
18377;Laerm;9315;52.624;13.544;2023-06-14T01:29:40;52.66;35.10;69.36;;
18377;Laerm;9315;52.624;13.544;2023-06-14T01:32:13;46.92;36.51;65.13;;
18377;Laerm;9315;52.624;13.544;2023-06-14T01:34:40;58.09;35.45;72.69;;
18377;Laerm;9315;52.624;13.544;2023-06-14T01:37:08;55.32;37.20;72.54;;
18377;Laerm;9315;52.624;13.544;2023-06-14T01:39:36;59.79;37.91;76.31;;
18377;Laerm;9315;52.624;13.544;2023-06-14T01:42:04;54.36;37.94;70.48;;
18377;Laerm;9315;52.624;13.544;2023-06-14T01:44:33;59.70;38.07;75.92;;
18377;Laerm;9315;52.624;13.544;2023-06-14T01:47:00;57.24;37.94;74.47;;
18377;Laerm;9315;52.624;13.544;2023-06-14T01:49:28;49.47;38.29;64.46;;
18377;Laerm;9315;52.624;13.544;2023-06-14T01:51:55;54.98;39.26;71.27;;
18377;Laerm;9315;52.624;13.544;2023-06-14T01:54:22;58.12;39.71;74.98;;
18377;Laerm;9315;52.624;13.544;2023-06-14T01:56:52;60.31;40.49;75.20;;
18377;Laerm;9315;52.624;13.544;2023-06-14T01:59:19;59.69;40.07;75.74;;
18377;Laerm;9315;52.624;13.544;2023-06-14T02:01:47;61.28;39.14;77.18;;
18377;Laerm;9315;52.624;13.544;2023-06-14T02:04:14;60.51;40.40;79.16;;
18377;Laerm;9315;52.624;13.544;2023-06-14T02:06:41;56.37;39.45;71.45;;
18377;Laerm;9315;52.624;13.544;2023-06-14T02:09:08;61.68;40.38;77.90;;
18377;Laerm;9315;52.624;13.544;2023-06-14T02:11:35;56.41;41.62;73.22;;
18377;Laerm;9315;52.624;13.544;2023-06-14T02:14:02;59.50;40.30;72.63;;
18377;Laerm;9315;52.624;13.544;2023-06-14T02:16:33;63.12;38.97;74.30;;
18377;Laerm;9315;52.624;13.544;2023-06-14T02:19:03;63.01;39.99;76.30;;
18377;Laerm;9315;52.624;13.544;2023-06-14T02:21:31;60.01;40.47;73.55;;
18377;Laerm;9315;52.624;13.544;2023-06-14T02:23:58;58.38;39.72;72.38;;
18377;Laerm;9315;52.624;13.544;2023-06-14T02:26:25;60.76;40.24;77.65;;
18377;Laerm;9315;52.624;13.544;2023-06-14T02:28:55;60.82;40.47;76.58;;
18377;Laerm;9315;52.624;13.544;2023-06-14T02:31:22;62.49;41.04;77.13;;
18377;Laerm;9315;52.624;13.544;2023-06-14T02:33:50;61.90;39.84;76.61;;
18377;Laerm;9315;52.624;13.544;2023-06-14T02:36:17;65.99;42.30;76.39;;
18377;Laerm;9315;52.624;13.544;2023-06-14T02:38:44;64.95;41.44;76.82;;
18377;Laerm;9315;52.624;13.544;2023-06-14T02:41:12;63.69;39.75;79.15;;
18377;Laerm;9315;52.624;13.544;2023-06-14T02:43:39;63.24;42.29;75.20;;
18377;Laerm;9315;52.624;13.544;2023-06-14T02:46:06;65.18;42.84;76.37;;
18377;Laerm;9315;52.624;13.544;2023-06-14T02:48:34;64.41;42.36;75.44;;
18377;Laerm;9315;52.624;13.544;2023-06-14T02:51:01;64.97;40.73;79.04;;
18377;Laerm;9315;52.624;13.544;2023-06-14T02:53:28;64.02;40.26;75.74;;
18377;Laerm;9315;52.624;13.544;2023-06-14T02:55:55;65.48;41.57;78.14;;
18377;Laerm;9315;52.624;13.544;2023-06-14T02:58:23;60.90;41.99;73.64;;
18377;Laerm;9315;52.624;13.544;2023-06-14T03:00:51;63.31;42.58;76.75;;
18377;Laerm;9315;52.624;13.544;2023-06-14T03:03:22;64.34;42.11;76.04;;
18377;Laerm;9315;52.624;13.544;2023-06-14T03:05:54;67.56;44.66;83.54;;
18377;Laerm;9315;52.624;13.544;2023-06-14T03:08:22;66.28;41.59;77.29;;
18377;Laerm;9315;52.624;13.544;2023-06-14T03:10:54;65.60;43.92;76.91;;
18377;Laerm;9315;52.624;13.544;2023-06-14T03:13:23;66.06;43.51;78.76;;
18377;Laerm;9315;52.624;13.544;2023-06-14T03:15:50;67.43;44.98;79.25;;
18377;Laerm;9315;52.624;13.544;2023-06-14T03:18:17;66.03;44.23;77.03;;
18377;Laerm;9315;52.624;13.544;2023-06-14T03:20:44;66.97;43.28;75.76;;
18377;Laerm;9315;52.624;13.544;2023-06-14T03:23:12;66.42;45.57;76.57;;
18377;Laerm;9315;52.624;13.544;2023-06-14T03:25:40;68.19;45.75;80.74;;
18377;Laerm;9315;52.624;13.544;2023-06-14T03:28:09;65.70;45.62;77.38;;
18377;Laerm;9315;52.624;13.544;2023-06-14T03:30:40;67.28;43.88;78.28;;
18377;Laerm;9315;52.624;13.544;2023-06-14T03:33:08;64.04;45.89;76.84;;
18377;Laerm;9315;52.624;13.544;2023-06-14T03:35:35;68.33;45.44;77.47;;
18377;Laerm;9315;52.624;13.544;2023-06-14T03:38:03;67.09;44.76;77.42;;
18377;Laerm;9315;52.624;13.544;2023-06-14T03:40:30;67.97;47.08;83.86;;
18377;Laerm;9315;52.624;13.544;2023-06-14T03:42:58;67.37;49.37;78.24;;
18377;Laerm;9315;52.624;13.544;2023-06-14T03:45:25;67.15;48.35;76.48;;
18377;Laerm;9315;52.624;13.544;2023-06-14T03:47:53;67.21;45.33;76.90;;
18377;Laerm;9315;52.624;13.544;2023-06-14T03:50:21;66.58;44.21;76.97;;
18377;Laerm;9315;52.624;13.544;2023-06-14T03:52:49;66.18;45.61;76.79;;
18377;Laerm;9315;52.624;13.544;2023-06-14T03:55:17;67.71;45.69;75.54;;
18377;Laerm;9315;52.624;13.544;2023-06-14T03:57:47;68.12;47.47;79.01;;
18377;Laerm;9315;52.624;13.544;2023-06-14T04:00:15;67.80;45.45;80.00;;
18377;Laerm;9315;52.624;13.544;2023-06-14T04:02:42;67.86;46.03;79.22;;
18377;Laerm;9315;52.624;13.544;2023-06-14T04:05:11;66.55;44.90;77.30;;
18377;Laerm;9315;52.624;13.544;2023-06-14T04:07:38;69.93;44.53;80.68;;
18377;Laerm;9315;52.624;13.544;2023-06-14T04:10:13;67.00;46.57;76.15;;
18377;Laerm;9315;52.624;13.544;2023-06-14T04:12:41;70.47;47.71;86.98;;
18377;Laerm;9315;52.624;13.544;2023-06-14T04:15:10;70.40;48.92;82.38;;
18377;Laerm;9315;52.624;13.544;2023-06-14T04:17:49;68.13;46.64;77.31;;
18377;Laerm;9315;52.624;13.544;2023-06-14T04:20:16;66.81;45.78;76.26;;
18377;Laerm;9315;52.624;13.544;2023-06-14T04:22:44;69.96;46.86;81.48;;
18377;Laerm;9315;52.624;13.544;2023-06-14T04:25:12;68.85;46.80;77.63;;
18377;Laerm;9315;52.624;13.544;2023-06-14T04:27:40;70.13;47.18;78.65;;
18377;Laerm;9315;52.624;13.544;2023-06-14T04:30:09;68.00;47.01;82.45;;
18377;Laerm;9315;52.624;13.544;2023-06-14T04:32:36;69.55;45.76;78.89;;
18377;Laerm;9315;52.624;13.544;2023-06-14T04:35:08;71.46;47.91;85.56;;
18377;Laerm;9315;52.624;13.544;2023-06-14T04:37:35;70.31;46.62;81.55;;
18377;Laerm;9315;52.624;13.544;2023-06-14T04:40:08;69.93;43.24;79.28;;
18377;Laerm;9315;52.624;13.544;2023-06-14T04:42:39;68.85;45.67;80.90;;
18377;Laerm;9315;52.624;13.544;2023-06-14T04:45:08;68.93;45.42;81.51;;
18377;Laerm;9315;52.624;13.544;2023-06-14T04:47:36;70.10;46.01;81.95;;
18377;Laerm;9315;52.624;13.544;2023-06-14T04:50:05;70.37;46.31;82.55;;
18377;Laerm;9315;52.624;13.544;2023-06-14T04:52:32;69.94;47.33;79.98;;
18377;Laerm;9315;52.624;13.544;2023-06-14T04:54:59;68.90;42.37;82.52;;
18377;Laerm;9315;52.624;13.544;2023-06-14T04:57:27;68.42;44.92;77.67;;
18377;Laerm;9315;52.624;13.544;2023-06-14T04:59:54;67.84;44.02;78.77;;
18377;Laerm;9315;52.624;13.544;2023-06-14T05:02:24;69.80;44.09;82.94;;
18377;Laerm;9315;52.624;13.544;2023-06-14T05:04:52;68.60;47.02;78.57;;
18377;Laerm;9315;52.624;13.544;2023-06-14T05:07:19;68.37;42.12;77.45;;
18377;Laerm;9315;52.624;13.544;2023-06-14T05:09:47;70.29;44.87;82.58;;
18377;Laerm;9315;52.624;13.544;2023-06-14T05:12:14;69.15;47.95;82.82;;
18377;Laerm;9315;52.624;13.544;2023-06-14T05:14:45;78.72;47.61;100.17;;
18377;Laerm;9315;52.624;13.544;2023-06-14T05:17:12;68.15;43.98;77.48;;
18377;Laerm;9315;52.624;13.544;2023-06-14T05:19:40;70.81;51.79;80.95;;
18377;Laerm;9315;52.624;13.544;2023-06-14T05:22:07;69.79;52.35;91.34;;
18377;Laerm;9315;52.624;13.544;2023-06-14T05:24:35;68.59;45.75;76.90;;
18377;Laerm;9315;52.624;13.544;2023-06-14T05:27:02;68.33;42.36;77.19;;
18377;Laerm;9315;52.624;13.544;2023-06-14T05:29:30;71.20;44.40;83.55;;
18377;Laerm;9315;52.624;13.544;2023-06-14T05:31:58;66.49;46.38;75.04;;
18377;Laerm;9315;52.624;13.544;2023-06-14T05:34:25;68.39;46.49;77.55;;
18377;Laerm;9315;52.624;13.544;2023-06-14T05:36:52;70.09;50.20;80.90;;
18377;Laerm;9315;52.624;13.544;2023-06-14T05:39:19;67.27;44.05;77.94;;
18377;Laerm;9315;52.624;13.544;2023-06-14T05:41:46;69.94;44.33;88.67;;
18377;Laerm;9315;52.624;13.544;2023-06-14T05:44:16;71.63;46.88;83.98;;
18377;Laerm;9315;52.624;13.544;2023-06-14T05:46:44;67.78;44.15;76.78;;
18377;Laerm;9315;52.624;13.544;2023-06-14T05:49:11;67.72;42.85;78.15;;
18377;Laerm;9315;52.624;13.544;2023-06-14T05:51:39;68.90;43.81;78.09;;
18377;Laerm;9315;52.624;13.544;2023-06-14T05:54:06;68.38;41.74;77.34;;
18377;Laerm;9315;52.624;13.544;2023-06-14T05:56:34;68.95;42.13;81.87;;
18377;Laerm;9315;52.624;13.544;2023-06-14T05:59:01;69.99;42.68;81.89;;
18377;Laerm;9315;52.624;13.544;2023-06-14T06:01:29;69.83;43.40;86.87;;
18377;Laerm;9315;52.624;13.544;2023-06-14T06:03:57;69.56;49.70;77.51;;
18377;Laerm;9315;52.624;13.544;2023-06-14T06:06:24;67.90;43.89;79.54;;
18377;Laerm;9315;52.624;13.544;2023-06-14T06:08:52;68.87;45.34;79.39;;
18377;Laerm;9315;52.624;13.544;2023-06-14T06:11:19;69.63;43.40;78.87;;
18377;Laerm;9315;52.624;13.544;2023-06-14T06:13:47;69.46;43.90;81.61;;
18377;Laerm;9315;52.624;13.544;2023-06-14T06:16:14;68.42;44.62;80.91;;
18377;Laerm;9315;52.624;13.544;2023-06-14T06:18:42;69.83;41.93;90.06;;
18377;Laerm;9315;52.624;13.544;2023-06-14T06:21:11;69.26;42.93;77.51;;
18377;Laerm;9315;52.624;13.544;2023-06-14T06:23:38;69.02;43.00;83.66;;
18377;Laerm;9315;52.624;13.544;2023-06-14T06:26:06;68.17;43.47;79.68;;
18377;Laerm;9315;52.624;13.544;2023-06-14T06:28:33;69.57;46.71;78.34;;
18377;Laerm;9315;52.624;13.544;2023-06-14T06:31:00;70.80;43.55;88.11;;
18377;Laerm;9315;52.624;13.544;2023-06-14T06:33:31;67.36;40.22;76.00;;
18377;Laerm;9315;52.624;13.544;2023-06-14T06:35:58;67.81;44.20;76.11;;
18377;Laerm;9315;52.624;13.544;2023-06-14T06:38:25;70.14;47.31;80.87;;
18377;Laerm;9315;52.624;13.544;2023-06-14T06:40:52;68.94;41.39;77.56;;
18377;Laerm;9315;52.624;13.544;2023-06-14T06:43:21;69.83;43.39;83.48;;
18377;Laerm;9315;52.624;13.544;2023-06-14T06:45:48;68.27;47.37;77.30;;
18377;Laerm;9315;52.624;13.544;2023-06-14T06:48:15;69.02;48.52;80.68;;
18377;Laerm;9315;52.624;13.544;2023-06-14T06:50:44;68.22;43.29;76.82;;
18377;Laerm;9315;52.624;13.544;2023-06-14T06:53:11;67.80;48.13;76.64;;
18377;Laerm;9315;52.624;13.544;2023-06-14T06:55:42;68.58;45.40;80.72;;
18377;Laerm;9315;52.624;13.544;2023-06-14T06:58:09;68.43;43.74;78.61;;
18377;Laerm;9315;52.624;13.544;2023-06-14T07:00:37;68.39;44.46;77.21;;
18377;Laerm;9315;52.624;13.544;2023-06-14T07:03:05;69.19;46.25;78.29;;
18377;Laerm;9315;52.624;13.544;2023-06-14T07:05:32;68.42;45.83;76.80;;
18377;Laerm;9315;52.624;13.544;2023-06-14T07:08:00;69.95;42.99;83.85;;
18377;Laerm;9315;52.624;13.544;2023-06-14T07:10:27;68.60;46.56;77.97;;
18377;Laerm;9315;52.624;13.544;2023-06-14T07:12:54;67.70;49.19;80.89;;
18377;Laerm;9315;52.624;13.544;2023-06-14T07:15:21;68.93;38.95;77.24;;
18377;Laerm;9315;52.624;13.544;2023-06-14T07:17:51;69.69;51.18;83.67;;
18377;Laerm;9315;52.624;13.544;2023-06-14T07:20:20;66.43;39.12;75.53;;
18377;Laerm;9315;52.624;13.544;2023-06-14T07:22:49;68.92;44.36;80.94;;
18377;Laerm;9315;52.624;13.544;2023-06-14T07:25:16;68.40;47.91;76.55;;
18377;Laerm;9315;52.624;13.544;2023-06-14T07:27:47;67.85;44.04;77.02;;
18377;Laerm;9315;52.624;13.544;2023-06-14T07:30:16;69.01;41.32;85.42;;
18377;Laerm;9315;52.624;13.544;2023-06-14T07:32:45;69.03;39.52;81.04;;
18377;Laerm;9315;52.624;13.544;2023-06-14T07:35:12;65.88;38.69;77.80;;
18377;Laerm;9315;52.624;13.544;2023-06-14T07:37:40;68.39;43.87;76.54;;
18377;Laerm;9315;52.624;13.544;2023-06-14T07:40:08;68.52;42.22;78.81;;
18377;Laerm;9315;52.624;13.544;2023-06-14T07:42:37;67.88;44.13;77.42;;
18377;Laerm;9315;52.624;13.544;2023-06-14T07:45:05;68.15;49.05;76.72;;
18377;Laerm;9315;52.624;13.544;2023-06-14T07:47:33;69.88;43.39;82.11;;
18377;Laerm;9315;52.624;13.544;2023-06-14T07:50:01;68.68;42.04;84.15;;
18377;Laerm;9315;52.624;13.544;2023-06-14T07:52:29;67.84;44.42;77.66;;
18377;Laerm;9315;52.624;13.544;2023-06-14T07:54:57;67.95;45.26;76.50;;
18377;Laerm;9315;52.624;13.544;2023-06-14T07:57:25;68.81;42.24;78.74;;
18377;Laerm;9315;52.624;13.544;2023-06-14T07:59:52;69.33;47.51;77.92;;
18377;Laerm;9315;52.624;13.544;2023-06-14T08:02:19;66.54;39.24;77.62;;
18377;Laerm;9315;52.624;13.544;2023-06-14T08:04:47;69.26;48.20;79.19;;
18377;Laerm;9315;52.624;13.544;2023-06-14T08:07:15;67.38;42.11;78.01;;
18377;Laerm;9315;52.624;13.544;2023-06-14T08:09:42;67.78;42.16;75.97;;
18377;Laerm;9315;52.624;13.544;2023-06-14T08:12:09;68.90;46.32;81.63;;
18377;Laerm;9315;52.624;13.544;2023-06-14T08:14:39;69.29;42.61;86.85;;
18377;Laerm;9315;52.624;13.544;2023-06-14T08:17:08;68.19;50.29;75.47;;
18377;Laerm;9315;52.624;13.544;2023-06-14T08:19:35;68.43;45.24;77.36;;
18377;Laerm;9315;52.624;13.544;2023-06-14T08:22:05;69.99;47.08;81.53;;
18377;Laerm;9315;52.624;13.544;2023-06-14T08:24:32;66.41;41.45;75.49;;
18377;Laerm;9315;52.624;13.544;2023-06-14T08:26:59;65.79;40.14;75.66;;
18377;Laerm;9315;52.624;13.544;2023-06-14T08:29:28;69.48;44.58;84.70;;
18377;Laerm;9315;52.624;13.544;2023-06-14T08:31:58;68.08;43.02;80.06;;
18377;Laerm;9315;52.624;13.544;2023-06-14T08:34:26;68.94;43.35;84.10;;
18377;Laerm;9315;52.624;13.544;2023-06-14T08:36:53;68.71;43.86;80.09;;
18377;Laerm;9315;52.624;13.544;2023-06-14T08:39:20;67.18;39.30;79.70;;
18377;Laerm;9315;52.624;13.544;2023-06-14T08:41:49;68.10;42.51;78.29;;
18377;Laerm;9315;52.624;13.544;2023-06-14T08:44:17;68.27;46.88;76.91;;
18377;Laerm;9315;52.624;13.544;2023-06-14T08:46:46;68.85;49.46;77.31;;
18377;Laerm;9315;52.624;13.544;2023-06-14T08:49:17;66.78;41.74;75.71;;
18377;Laerm;9315;52.624;13.544;2023-06-14T08:51:45;68.08;44.35;75.71;;
18377;Laerm;9315;52.624;13.544;2023-06-14T08:54:14;68.01;42.89;80.40;;
18377;Laerm;9315;52.624;13.544;2023-06-14T08:56:42;67.64;41.64;79.44;;
18377;Laerm;9315;52.624;13.544;2023-06-14T08:59:11;69.07;49.46;80.34;;
18377;Laerm;9315;52.624;13.544;2023-06-14T09:01:39;67.36;51.15;78.99;;
18377;Laerm;9315;52.624;13.544;2023-06-14T09:04:12;66.70;41.31;77.96;;
18377;Laerm;9315;52.624;13.544;2023-06-14T09:06:40;68.96;47.83;78.63;;
18377;Laerm;9315;52.624;13.544;2023-06-14T09:09:07;69.43;43.89;79.58;;
18377;Laerm;9315;52.624;13.544;2023-06-14T09:11:35;67.85;45.49;79.25;;
18377;Laerm;9315;52.624;13.544;2023-06-14T09:14:02;67.23;44.60;75.84;;
18377;Laerm;9315;52.624;13.544;2023-06-14T09:16:32;67.40;41.65;79.06;;
18377;Laerm;9315;52.624;13.544;2023-06-14T09:19:00;68.04;48.78;76.16;;
18377;Laerm;9315;52.624;13.544;2023-06-14T09:21:37;67.89;45.78;77.52;;
18377;Laerm;9315;52.624;13.544;2023-06-14T09:24:05;66.17;45.07;74.71;;
18377;Laerm;9315;52.624;13.544;2023-06-14T09:26:32;68.32;41.62;78.36;;
18377;Laerm;9315;52.624;13.544;2023-06-14T09:29:00;68.54;49.41;81.75;;
18377;Laerm;9315;52.624;13.544;2023-06-14T09:31:27;67.12;47.88;78.94;;
18377;Laerm;9315;52.624;13.544;2023-06-14T09:34:02;68.93;41.04;82.18;;
18377;Laerm;9315;52.624;13.544;2023-06-14T09:36:32;68.02;47.95;78.24;;
18377;Laerm;9315;52.624;13.544;2023-06-14T09:39:02;68.24;43.78;78.35;;
18377;Laerm;9315;52.624;13.544;2023-06-14T09:41:41;67.95;44.51;77.43;;
18377;Laerm;9315;52.624;13.544;2023-06-14T09:44:11;67.38;44.66;83.21;;
18377;Laerm;9315;52.624;13.544;2023-06-14T09:46:47;67.16;40.60;75.29;;
18377;Laerm;9315;52.624;13.544;2023-06-14T09:49:15;67.48;43.09;82.72;;
18377;Laerm;9315;52.624;13.544;2023-06-14T09:51:45;67.96;48.95;75.19;;
18377;Laerm;9315;52.624;13.544;2023-06-14T09:54:20;67.36;40.53;77.93;;
18377;Laerm;9315;52.624;13.544;2023-06-14T09:56:49;69.03;40.55;80.14;;
18377;Laerm;9315;52.624;13.544;2023-06-14T09:59:24;66.79;48.29;77.12;;
18377;Laerm;9315;52.624;13.544;2023-06-14T10:01:58;67.06;40.62;76.62;;
18377;Laerm;9315;52.624;13.544;2023-06-14T10:04:30;67.16;38.76;78.88;;
18377;Laerm;9315;52.624;13.544;2023-06-14T10:06:59;73.52;44.11;96.97;;
18377;Laerm;9315;52.624;13.544;2023-06-14T10:09:27;69.06;50.86;77.15;;
18377;Laerm;9315;52.624;13.544;2023-06-14T10:11:58;67.30;46.90;76.96;;
18377;Laerm;9315;52.624;13.544;2023-06-14T10:14:30;65.89;41.53;75.70;;
18377;Laerm;9315;52.624;13.544;2023-06-14T10:17:08;68.08;40.29;77.54;;
18377;Laerm;9315;52.624;13.544;2023-06-14T10:20:37;68.74;41.03;81.41;;
18377;Laerm;9315;52.624;13.544;2023-06-14T10:23:14;67.77;41.94;80.91;;
18377;Laerm;9315;52.624;13.544;2023-06-14T10:25:44;67.56;37.24;79.85;;
18377;Laerm;9315;52.624;13.544;2023-06-14T10:28:20;68.74;45.74;79.10;;
18377;Laerm;9315;52.624;13.544;2023-06-14T10:31:10;68.64;42.65;85.31;;
18377;Laerm;9315;52.624;13.544;2023-06-14T10:36:31;68.59;41.67;79.98;;
18377;Laerm;9315;52.624;13.544;2023-06-14T10:39:05;69.21;45.39;84.48;;
18377;Laerm;9315;52.624;13.544;2023-06-14T10:41:39;68.14;44.00;84.04;;
18377;Laerm;9315;52.624;13.544;2023-06-14T10:47:00;69.03;44.17;85.41;;
18377;Laerm;9315;52.624;13.544;2023-06-14T10:52:16;66.07;40.64;74.41;;
18377;Laerm;9315;52.624;13.544;2023-06-14T10:57:34;67.93;48.10;83.35;;
18377;Laerm;9315;52.624;13.544;2023-06-14T11:00:22;68.44;43.62;80.57;;
18377;Laerm;9315;52.624;13.544;2023-06-14T11:03:43;67.74;43.14;77.80;;
18377;Laerm;9315;52.624;13.544;2023-06-14T11:06:16;69.33;42.65;77.68;;
18377;Laerm;9315;52.624;13.544;2023-06-14T11:12:08;68.01;43.18;77.43;;
18377;Laerm;9315;52.624;13.544;2023-06-14T11:14:40;68.03;40.43;81.26;;
18377;Laerm;9315;52.624;13.544;2023-06-14T11:17:07;67.42;40.82;80.76;;
18377;Laerm;9315;52.624;13.544;2023-06-14T11:19:34;68.98;47.03;77.77;;
18377;Laerm;9315;52.624;13.544;2023-06-14T11:22:03;69.99;44.97;87.01;;
18377;Laerm;9315;52.624;13.544;2023-06-14T11:24:33;66.17;39.98;76.31;;
18377;Laerm;9315;52.624;13.544;2023-06-14T11:27:00;68.53;42.57;79.43;;
18377;Laerm;9315;52.624;13.544;2023-06-14T11:29:29;68.13;42.09;79.01;;
18377;Laerm;9315;52.624;13.544;2023-06-14T11:31:57;68.49;46.17;78.65;;
18377;Laerm;9315;52.624;13.544;2023-06-14T11:34:25;67.14;44.46;81.84;;
18377;Laerm;9315;52.624;13.544;2023-06-14T11:36:52;67.50;42.39;76.13;;
18377;Laerm;9315;52.624;13.544;2023-06-14T11:39:24;68.97;46.59;76.61;;
18377;Laerm;9315;52.624;13.544;2023-06-14T11:41:53;68.03;45.61;77.64;;
18377;Laerm;9315;52.624;13.544;2023-06-14T11:44:22;68.34;41.61;83.93;;
18377;Laerm;9315;52.624;13.544;2023-06-14T11:46:49;67.99;46.16;76.85;;
18377;Laerm;9315;52.624;13.544;2023-06-14T11:49:17;68.36;43.04;82.26;;
18377;Laerm;9315;52.624;13.544;2023-06-14T11:51:44;68.82;46.67;81.53;;
18377;Laerm;9315;52.624;13.544;2023-06-14T11:54:16;67.70;46.07;78.13;;
18377;Laerm;9315;52.624;13.544;2023-06-14T11:56:43;67.35;40.76;75.04;;
18377;Laerm;9315;52.624;13.544;2023-06-14T11:59:11;68.58;45.81;81.48;;
18377;Laerm;9315;52.624;13.544;2023-06-14T12:01:43;67.92;41.12;78.24;;
18377;Laerm;9315;52.624;13.544;2023-06-14T12:04:12;68.76;42.34;79.90;;
18377;Laerm;9315;52.624;13.544;2023-06-14T12:06:39;66.98;43.63;74.96;;
18377;Laerm;9315;52.624;13.544;2023-06-14T12:09:08;67.76;44.03;75.51;;
18377;Laerm;9315;52.624;13.544;2023-06-14T12:11:41;68.58;46.53;78.25;;
18377;Laerm;9315;52.624;13.544;2023-06-14T12:14:09;68.61;41.31;82.30;;
18377;Laerm;9315;52.624;13.544;2023-06-14T12:16:39;67.85;39.22;76.88;;
18377;Laerm;9315;52.624;13.544;2023-06-14T12:19:17;69.31;45.87;82.68;;
18377;Laerm;9315;52.624;13.544;2023-06-14T12:21:47;68.03;40.19;79.10;;
18377;Laerm;9315;52.624;13.544;2023-06-14T12:24:16;67.77;46.10;79.54;;
18377;Laerm;9315;52.624;13.544;2023-06-14T12:26:44;69.72;43.40;80.33;;
18377;Laerm;9315;52.624;13.544;2023-06-14T12:29:13;69.23;38.70;79.40;;
18377;Laerm;9315;52.624;13.544;2023-06-14T12:31:40;70.40;40.71;93.61;;
18377;Laerm;9315;52.624;13.544;2023-06-14T12:34:08;69.34;46.26;79.12;;
18377;Laerm;9315;52.624;13.544;2023-06-14T12:36:35;68.39;45.97;78.65;;
18377;Laerm;9315;52.624;13.544;2023-06-14T12:39:09;68.96;49.91;81.87;;
18377;Laerm;9315;52.624;13.544;2023-06-14T12:41:36;68.30;50.24;78.37;;
18377;Laerm;9315;52.624;13.544;2023-06-14T12:44:06;69.56;47.52;80.02;;
18377;Laerm;9315;52.624;13.544;2023-06-14T12:46:34;68.88;46.44;78.78;;
18377;Laerm;9315;52.624;13.544;2023-06-14T12:49:02;68.55;41.01;76.60;;
18377;Laerm;9315;52.624;13.544;2023-06-14T12:51:29;69.35;51.69;75.89;;
18377;Laerm;9315;52.624;13.544;2023-06-14T12:53:56;69.70;47.03;84.44;;
18377;Laerm;9315;52.624;13.544;2023-06-14T12:56:23;68.55;43.66;78.04;;
18377;Laerm;9315;52.624;13.544;2023-06-14T12:58:51;67.40;41.58;74.64;;
18377;Laerm;9315;52.624;13.544;2023-06-14T13:01:19;70.02;48.17;82.28;;
18377;Laerm;9315;52.624;13.544;2023-06-14T13:03:47;69.92;50.12;84.18;;
18377;Laerm;9315;52.624;13.544;2023-06-14T13:06:17;68.05;46.89;77.98;;
18377;Laerm;9315;52.624;13.544;2023-06-14T13:08:44;68.45;42.57;80.20;;
18377;Laerm;9315;52.624;13.544;2023-06-14T13:11:11;68.48;45.91;79.37;;
18377;Laerm;9315;52.624;13.544;2023-06-14T13:13:39;70.08;50.89;82.81;;
18377;Laerm;9315;52.624;13.544;2023-06-14T13:16:06;67.37;42.52;76.83;;
18377;Laerm;9315;52.624;13.544;2023-06-14T13:18:33;68.14;44.97;77.38;;
18377;Laerm;9315;52.624;13.544;2023-06-14T13:21:01;69.22;43.72;79.74;;
18377;Laerm;9315;52.624;13.544;2023-06-14T13:23:28;67.82;47.15;77.81;;
18377;Laerm;9315;52.624;13.544;2023-06-14T13:25:55;68.40;47.63;77.72;;
18377;Laerm;9315;52.624;13.544;2023-06-14T13:28:23;68.22;46.52;77.23;;
18377;Laerm;9315;52.624;13.544;2023-06-14T13:30:52;68.33;44.58;80.75;;
18377;Laerm;9315;52.624;13.544;2023-06-14T13:33:19;69.22;47.03;84.38;;
18377;Laerm;9315;52.624;13.544;2023-06-14T13:35:54;68.06;48.91;78.35;;
18377;Laerm;9315;52.624;13.544;2023-06-14T13:38:21;68.71;42.08;80.27;;
18377;Laerm;9315;52.624;13.544;2023-06-14T13:40:51;69.00;45.29;80.49;;
18377;Laerm;9315;52.624;13.544;2023-06-14T13:43:21;67.78;49.47;77.32;;
18377;Laerm;9315;52.624;13.544;2023-06-14T13:45:49;70.19;47.29;78.70;;
18377;Laerm;9315;52.624;13.544;2023-06-14T13:48:34;68.50;46.60;80.01;;
18377;Laerm;9315;52.624;13.544;2023-06-14T13:51:21;68.41;50.25;80.95;;
18377;Laerm;9315;52.624;13.544;2023-06-14T13:54:06;67.07;51.40;74.73;;
18377;Laerm;9315;52.624;13.544;2023-06-14T13:56:54;71.09;49.96;81.98;;
18377;Laerm;9315;52.624;13.544;2023-06-14T13:59:40;68.49;49.00;77.14;;
18377;Laerm;9315;52.624;13.544;2023-06-14T14:02:25;69.04;46.75;78.14;;
18377;Laerm;9315;52.624;13.544;2023-06-14T14:05:10;68.22;47.62;76.74;;
18377;Laerm;9315;52.624;13.544;2023-06-14T14:07:55;67.97;42.37;76.73;;
18377;Laerm;9315;52.624;13.544;2023-06-14T14:10:41;69.07;45.80;80.45;;
18377;Laerm;9315;52.624;13.544;2023-06-14T14:13:26;67.78;46.94;78.08;;